French Navy Ship — SO — position and weather

sailwx.info

Track history (hours):
 
Tides and Currents Weather Stations Pressure Air Temp Water Temp Dewpoint Dewpoint Depression Visibility Wind Speed Wind Dir Waves Ship Positions

French Navy Ship

Last reported at 2018-Feb-13 10:03 UTC. Time now 2018-Feb-23 05:03 UTC.
Position N 49°05' W 002°43'.
Warning: this ship's position is 9 days out of date.

Length 158 m.

Type: Military. MMSI: 228779000.

Date/timePositionNaut miles runAvg speedWind from/ knotsBaromVisibWave heightAir tempDewpointWater temp
2018-Feb-13 10:03N 49°05' W 002°43'316.0
2018-Feb-13 09:51N 49°09' W 002°44'714.9
2018-Feb-13 09:21N 49°13' W 002°53'815.5
2018-Feb-13 08:51N 49°19' W 003°01'614.8
2018-Feb-13 08:27N 49°25' W 003°05'2912.7
2018-Feb-13 06:08N 49°54' W 003°07'110.2
2018-Feb-13 06:00N 49°55' W 003°06'612.9
2018-Feb-13 05:30N 49°56' W 002°56'713.7
2018-Feb-13 05:00N 49°59' W 002°46'713.7
2018-Feb-13 04:30N 50°01' W 002°36'2114.8
2018-Feb-13 03:06N 50°03' W 002°04'216.6
2018-Feb-13 03:00N 50°02' W 002°02'816.8
2018-Feb-13 02:31N 49°58' W 001°50'59 7.3
2018-Feb-12 18:27N 49°57' W 000°19'511.6
2018-Feb-12 18:00N 50°01' W 000°17'816.4
2018-Feb-12 17:30N 50°10' W 000°15'916.6
2018-Feb-12 16:59N 50°18' W 000°17'713.7
2018-Feb-12 16:30N 50°24' W 000°13'916.8
2018-Feb-12 15:58N 50°27' W 000°00'817.3
2018-Feb-12 15:30N 50°30' E 000°12'917.6
2018-Feb-12 15:00N 50°33' E 000°25'917.4
2018-Feb-12 14:30N 50°36' E 000°37'917.6
2018-Feb-12 14:01N 50°41' E 000°49'917.4
2018-Feb-12 13:30N 50°46' E 000°60'1217.0
2018-Feb-12 12:49N 50°53' E 001°15'616.6
2018-Feb-12 12:29N 50°57' E 001°21'816.3
2018-Feb-12 12:01N 51°03' E 001°30'713.5
2018-Feb-12 11:30N 51°00' E 001°40'  
2018-Feb-09 03:30N 51°02' E 001°48'611.3
2018-Feb-09 03:00N 51°00' E 001°39'54 2.6
2018-Feb-08 06:30N 50°33' E 000°25'1010.4
2018-Feb-08 05:30N 50°39' E 000°39'510.3
2018-Feb-08 05:00N 50°42' E 000°45'510.0
2018-Feb-08 04:30N 50°45' E 000°51'2 4.9
2018-Feb-08 04:00N 50°47' E 000°54'2914.4
2018-Feb-08 02:00N 51°05' E 001°29'1019.3
2018-Feb-08 01:31N 51°11' E 001°42'918.7
2018-Feb-08 01:01N 51°19' E 001°50'919.0
2018-Feb-08 00:31N 51°27' E 001°58'918.5
2018-Feb-08 00:00N 51°34' E 002°08'918.4
2018-Feb-07 23:30N 51°41' E 002°16'50615.4
2018-Feb-06 14:42N 58°43' E 010°24'5 7.6
2018-Feb-06 14:00N 58°48' E 010°29'1 2.7
2018-Feb-06 13:30N 58°49' E 010°30'713.5
2018-Feb-06 13:00N 58°56' E 010°34'815.5
2018-Feb-06 12:30N 59°03' E 010°36'612.0
2018-Feb-06 12:00N 59°09' E 010°38'815.4
2018-Feb-06 11:30N 59°17' E 010°36'815.5
2018-Feb-06 11:00N 59°24' E 010°33'2814.0
2018-Feb-06 09:00N 59°52' E 010°38'  
Track history (hours):
 
Tides and Currents Weather Stations Pressure Air Temp Water Temp Dewpoint Dewpoint Depression Visibility Wind Speed Wind Dir Waves Ship Positions

French Navy Ship

Last reported at 2018-Feb-13 10:03 UTC. Time now 2018-Feb-23 05:03 UTC.
Position N 49°05' W 002°43'.
Warning: this ship's position is 9 days out of date.

Length 158 m.

Type: Military. MMSI: 228779000.

Date/timePositionNaut miles runAvg speedWind from/ knotsBaromVisibWave heightAir tempDewpointWater temp
2018-Feb-13 10:03N 49°05' W 002°43'316.0
2018-Feb-13 09:51N 49°09' W 002°44'714.9
2018-Feb-13 09:21N 49°13' W 002°53'815.5
2018-Feb-13 08:51N 49°19' W 003°01'614.8
2018-Feb-13 08:27N 49°25' W 003°05'2912.7
2018-Feb-13 06:08N 49°54' W 003°07'110.2
2018-Feb-13 06:00N 49°55' W 003°06'612.9
2018-Feb-13 05:30N 49°56' W 002°56'713.7
2018-Feb-13 05:00N 49°59' W 002°46'713.7
2018-Feb-13 04:30N 50°01' W 002°36'2114.8
2018-Feb-13 03:06N 50°03' W 002°04'216.6
2018-Feb-13 03:00N 50°02' W 002°02'816.8
2018-Feb-13 02:31N 49°58' W 001°50'59 7.3
2018-Feb-12 18:27N 49°57' W 000°19'511.6
2018-Feb-12 18:00N 50°01' W 000°17'816.4
2018-Feb-12 17:30N 50°10' W 000°15'916.6
2018-Feb-12 16:59N 50°18' W 000°17'713.7
2018-Feb-12 16:30N 50°24' W 000°13'916.8
2018-Feb-12 15:58N 50°27' W 000°00'817.3
2018-Feb-12 15:30N 50°30' E 000°12'917.6
2018-Feb-12 15:00N 50°33' E 000°25'917.4
2018-Feb-12 14:30N 50°36' E 000°37'917.6
2018-Feb-12 14:01N 50°41' E 000°49'917.4
2018-Feb-12 13:30N 50°46' E 000°60'1217.0
2018-Feb-12 12:49N 50°53' E 001°15'616.6
2018-Feb-12 12:29N 50°57' E 001°21'816.3
2018-Feb-12 12:01N 51°03' E 001°30'713.5
2018-Feb-12 11:30N 51°00' E 001°40'  
2018-Feb-09 03:30N 51°02' E 001°48'611.3
2018-Feb-09 03:00N 51°00' E 001°39'54 2.6
2018-Feb-08 06:30N 50°33' E 000°25'1010.4
2018-Feb-08 05:30N 50°39' E 000°39'510.3
2018-Feb-08 05:00N 50°42' E 000°45'510.0
2018-Feb-08 04:30N 50°45' E 000°51'2 4.9
2018-Feb-08 04:00N 50°47' E 000°54'2914.4
2018-Feb-08 02:00N 51°05' E 001°29'1019.3
2018-Feb-08 01:31N 51°11' E 001°42'918.7
2018-Feb-08 01:01N 51°19' E 001°50'919.0
2018-Feb-08 00:31N 51°27' E 001°58'918.5
2018-Feb-08 00:00N 51°34' E 002°08'918.4
2018-Feb-07 23:30N 51°41' E 002°16'50615.4
2018-Feb-06 14:42N 58°43' E 010°24'5 7.6
2018-Feb-06 14:00N 58°48' E 010°29'1 2.7
2018-Feb-06 13:30N 58°49' E 010°30'713.5
2018-Feb-06 13:00N 58°56' E 010°34'815.5
2018-Feb-06 12:30N 59°03' E 010°36'612.0
2018-Feb-06 12:00N 59°09' E 010°38'815.4
2018-Feb-06 11:30N 59°17' E 010°36'815.5
2018-Feb-06 11:00N 59°24' E 010°33'2814.0
2018-Feb-06 09:00N 59°52' E 010°38'  

Dump ship's entire track history